Sant Hilari Sacalm





Hora UTC 18:35
Temperatura 16.3 ºC
Humitat 74.9 %
Pressió 1025.4 hPa
Pluja 0.0 mm
Velocitat vent 2.3 km/h
Direcció vent N
Radiació solar 21.1 W/m²

Dades diàries 2020-05-25



Hora UTC (hivern +1h; estiu +2h)
Temperatura (ºC) Humitat (%) Pressió (hPa) Velocitat vent (km/h) Precipitació (mm) Radiació solar (W/m²)
Hora UTC Aire Humitat Pressió Vel. Dir. Vel. Max Dir. Intent. màx 5 min. Rad. Sol.
00:05 16.0 75.3 1026.3 3.0 WSW 3.0 WSW 0.0 0.1
00:10 16.0 73.0 1026.3 4.1 WSW 8.8 WNW 0.0 0.1
00:15 16.0 72.6 1026.3 3.7 WSW 6.1 W 0.0 0.1
00:20 16.0 73.9 1026.3 3.9 W 6.1 WSW 0.0 0.1
00:25 15.9 74.4 1026.2 3.8 W 6.1 W 0.0 0.1
00:30 15.9 74.4 1026.2 4.5 W 8.8 W 0.0 0.1
00:35 15.8 73.8 1026.1 3.5 WSW 6.1 WSW 0.0 0.1
00:40 15.9 72.6 1026.1 4.1 WSW 8.8 W 0.0 0.0
00:45 15.8 70.9 1026.1 2.1 WSW 6.1 SW 0.0 0.0
00:50 15.9 70.2 1026.1 3.1 WSW 6.1 WSW 0.0 0.1
00:55 15.8 69.5 1026.0 3.0 WSW 6.1 SW 0.0 0.1
01:00 15.8 67.3 1026.0 2.6 WSW 6.1 W 0.0 0.1
01:05 15.9 64.9 1025.9 2.0 SW 6.1 WSW 0.0 0.1
01:10 16.0 64.7 1025.9 0.6 W 3.4 WSW 0.0 0.1
01:15 15.9 63.1 1025.9 0.3 W 6.1 W 0.0 0.1
01:20 15.9 60.5 1025.9 2.0 W 6.1 WSW 0.0 0.1
01:25 15.9 62.0 1025.9 1.8 SW 6.1 WSW 0.0 0.1
01:30 15.9 66.7 1025.9 1.1 WSW 6.1 W 0.0 0.1
01:35 15.6 69.1 1025.9 0.6 WNW 6.1 WNW 0.0 0.1
01:40 15.5 64.6 1025.8 0.0 NNE 0.0 WNW 0.0 0.1
01:45 15.6 63.7 1025.8 0.9 W 3.4 W 0.0 0.1
01:50 15.6 68.2 1025.7 3.4 WSW 6.1 WSW 0.0 0.1
01:55 15.5 69.6 1025.7 2.0 WSW 6.1 WSW 0.0 0.1
02:00 15.5 66.6 1025.6 1.2 WSW 3.4 WSW 0.0 0.1
02:05 15.5 65.7 1025.6 0.9 WSW 3.4 WSW 0.0 0.0
02:10 15.6 65.9 1025.6 3.0 WSW 8.8 WSW 0.0 0.1
02:15 15.4 68.6 1025.6 2.9 W 6.1 WSW 0.0 0.1
02:20 15.3 67.5 1025.5 0.3 W 3.4 W 0.0 0.1
02:25 15.3 66.7 1025.5 0.2 WSW 3.4 WSW 0.0 0.1
02:30 15.4 66.2 1025.5 1.8 SW 6.1 SW 0.0 0.1
02:35 15.4 67.2 1025.5 3.3 WSW 6.1 W 0.0 0.1
02:40 15.3 65.9 1025.5 2.1 SW 6.1 SW 0.0 0.1
02:45 15.4 66.2 1025.5 0.2 SW 3.4 SW 0.0 0.1
02:50 15.4 64.8 1025.5 1.0 ESE 3.4 SE 0.0 0.1
02:55 15.5 62.8 1025.5 3.6 ESE 6.1 E 0.0 0.1
03:00 15.6 62.3 1025.5 3.6 ESE 6.1 ESE 0.0 0.1
03:05 15.7 63.7 1025.5 2.0 ESE 6.1 ESE 0.0 0.1
03:10 15.7 65.0 1025.5 1.0 ESE 3.4 E 0.0 0.1
03:15 15.6 65.8 1025.5 1.5 ESE 6.1 E 0.0 0.1
03:20 15.6 66.9 1025.5 4.4 ESE 8.8 SE 0.0 0.1
03:25 15.4 67.7 1025.5 6.7 ESE 11.5 ESE 0.0 0.1
03:30 15.3 68.7 1025.4 4.2 ESE 8.8 SSE 0.0 0.1
03:35 15.3 70.1 1025.4 4.2 ESE 8.8 ESE 0.0 0.1
03:40 15.2 70.7 1025.4 3.5 ENE 8.8 E 0.0 0.1
03:45 15.0 71.1 1025.4 1.3 E 6.1 E 0.0 0.1
03:50 15.0 71.6 1025.4 2.6 E 6.1 ENE 0.0 0.1
03:55 15.0 71.1 1025.4 4.6 ESE 6.1 E 0.0 0.1
04:00 15.1 70.1 1025.4 3.5 ESE 6.1 SE 0.0 0.1
04:05 15.1 69.5 1025.4 4.2 ESE 8.8 ESE 0.0 0.2
04:10 15.0 69.9 1025.4 3.7 E 8.8 ESE 0.0 0.7
04:15 14.9 68.1 1025.3 4.1 SE 8.8 SE 0.0 1.9
04:20 14.8 66.1 1025.3 3.4 SE 8.8 SE 0.0 3.9
04:25 14.8 65.2 1025.4 2.3 SE 6.1 SSE 0.0 6.3
04:30 14.8 64.2 1025.4 3.1 SSE 6.1 SSE 0.0 9.0
04:35 14.8 64.1 1025.4 2.4 SE 6.1 SE 0.0 15.7
04:40 14.8 62.4 1025.5 1.9 SE 6.1 SE 0.0 23.9
04:45 14.8 62.5 1025.4 2.0 SE 6.1 SSE 0.0 32.8
04:50 14.9 62.7 1025.5 1.7 SE 6.1 SSE 0.0 37.8
04:55 14.8 63.9 1025.5 1.9 ESE 6.1 S 0.0 31.8
05:00 14.8 64.1 1025.5 1.1 ESE 3.4 ESE 0.0 28.9
05:05 14.8 65.2 1025.6 0.0 NNE 0.0 SE 0.0 21.0
05:10 14.7 69.3 1025.6 1.4 W 6.1 W 0.0 22.1
05:15 14.7 69.9 1025.6 1.8 SW 6.1 SW 0.0 32.9
05:20 14.8 69.3 1025.6 3.1 SW 6.1 WSW 0.0 41.2
05:25 14.8 68.8 1025.7 0.6 SW 3.4 WSW 0.0 45.4
05:30 14.8 70.0 1025.7 0.8 WSW 3.4 W 0.0 54.2
05:35 14.8 69.2 1025.7 1.9 SW 6.1 SW 0.0 57.5
05:40 14.9 68.1 1025.8 1.7 SSW 6.1 SSW 0.0 49.8
05:45 14.9 66.6 1025.8 3.9 SW 8.8 SW 0.0 34.1
05:50 15.0 67.7 1025.8 1.8 SSW 6.1 SW 0.0 35.0
05:55 15.0 67.0 1025.8 3.2 SW 8.8 SW 0.0 42.0
06:00 15.0 66.1 1025.9 4.3 SSW 8.8 SSW 0.0 57.4
06:05 15.0 66.0 1025.9 4.6 SSW 8.8 SSW 0.0 61.3
06:10 15.1 66.7 1025.9 4.2 SSW 8.8 SSW 0.0 79.2
06:15 15.2 66.7 1026.0 5.6 SSW 8.8 SW 0.0 71.8
06:20 15.1 67.5 1026.0 7.1 S 11.5 SSW 0.0 75.6
06:25 15.0 68.3 1026.0 6.8 SSW 11.5 S 0.0 81.6
06:30 15.0 68.0 1026.0 6.3 SSW 11.5 SSW 0.0 74.1
06:35 15.0 68.0 1026.1 6.1 SSW 8.8 S 0.0 83.2
06:40 15.0 68.8 1026.1 5.6 S 11.5 SSW 0.0 105.4
06:45 14.9 69.3 1026.1 2.1 SSE 6.1 S 0.0 115.9
06:50 15.1 67.3 1026.2 2.9 S 6.1 SSE 0.0 112.0
06:55 15.2 67.0 1026.2 4.7 S 8.8 S 0.0 116.4
07:00 15.2 66.8 1026.2 4.2 SSW 8.8 S 0.0 116.2
07:05 15.2 66.2 1026.2 4.1 SSW 6.1 SSW 0.0 130.6
07:10 15.3 66.6 1026.2 2.8 SSW 6.1 SSW 0.0 151.1
07:15 15.4 66.6 1026.2 2.7 S 6.1 SE 0.0 183.7
07:20 15.6 68.2 1026.2 0.7 S 6.1 SSW 0.0 225.6
07:25 16.0 63.9 1026.2 0.6 SE 6.1 SE 0.0 190.6
07:30 16.1 62.9 1026.2 0.6 SE 6.1 SE 0.0 201.5
07:35 16.4 63.1 1026.1 1.0 SSE 3.4 SE 0.0 255.0
07:40 16.6 66.3 1026.2 0.1 ESE 3.4 ESE 0.0 342.8
07:45 17.0 64.3 1026.2 2.4 ESE 6.1 ESE 0.0 351.0
07:50 17.2 64.6 1026.1 2.7 E 6.1 ESE 0.0 366.8
07:55 17.1 65.4 1026.1 4.3 E 6.1 ENE 0.0 541.0
08:00 17.3 65.2 1026.1 5.2 ENE 8.8 E 0.0 642.6
08:05 17.7 63.9 1026.1 5.2 E 8.8 ENE 0.0 694.7
08:10 18.1 63.0 1026.0 4.7 E 8.8 ENE 0.0 717.5
08:15 18.0 63.5 1026.0 6.6 E 14.2 ENE 0.0 754.8
08:20 18.3 64.3 1026.0 5.1 ENE 11.5 E 0.0 789.5
08:25 18.6 62.6 1026.0 6.1 NE 11.5 E 0.0 832.0
08:30 18.3 60.4 1026.0 6.9 ENE 11.5 ENE 0.0 790.7
08:35 18.2 60.5 1026.0 5.9 ENE 8.8 ENE 0.0 748.2
08:40 18.3 59.8 1026.0 7.0 E 11.5 E 0.0 856.0
08:45 18.3 59.7 1026.0 7.2 ENE 11.5 ENE 0.0 801.0
08:50 18.4 59.5 1026.0 5.5 ENE 11.5 E 0.0 632.8
08:55 18.2 59.9 1026.0 5.7 ENE 8.8 ENE 0.0 606.2
09:00 18.0 60.4 1026.1 6.0 E 8.8 ENE 0.0 762.8
09:05 18.1 61.5 1026.1 5.4 E 11.5 NE 0.0 659.3
09:10 18.3 60.8 1026.1 6.2 E 11.5 E 0.0 698.9
09:15 18.4 61.1 1026.1 6.2 ENE 11.5 ENE 0.0 735.5
09:20 18.3 60.8 1026.2 6.2 E 11.5 E 0.0 726.6
09:25 18.3 61.5 1026.2 4.9 E 11.5 E 0.0 794.1
09:30 18.8 60.5 1026.2 6.5 ENE 11.5 ENE 0.0 963.0
09:35 19.0 59.3 1026.3 5.4 E 14.2 ENE 0.0 975.0
09:40 19.3 57.9 1026.3 5.4 ENE 11.5 NE 0.0 977.0
09:45 19.3 56.9 1026.3 6.7 ENE 11.5 E 0.0 874.0
09:50 19.6 56.8 1026.4 5.8 E 11.5 ENE 0.0 952.0
09:55 19.8 57.1 1026.4 4.5 E 8.8 E 0.0 740.4
10:00 19.8 55.8 1026.4 5.7 NE 11.5 ENE 0.0 1089.0
10:05 19.8 58.9 1026.4 6.1 NNE 14.2 E 0.0 776.4
10:10 19.8 56.3 1026.4 3.0 E 11.5 ENE 0.0 571.7
10:15 19.7 55.9 1026.4 5.9 ENE 14.2 ENE 0.0 787.2
10:20 20.1 57.6 1026.3 3.7 ENE 8.8 ENE 0.0 774.3
10:25 20.3 56.1 1026.4 4.9 ESE 11.5 NE 0.0 587.0
10:30 20.0 55.4 1026.4 5.1 SE 11.5 SSW 0.0 547.9
10:35 20.1 56.0 1026.3 3.6 SSE 11.5 SSW 0.0 514.9
10:40 19.9 56.4 1026.4 5.1 S 11.5 S 0.0 468.8
10:45 19.8 56.0 1026.4 4.9 ESE 8.8 SSE 0.0 410.2
10:50 19.6 57.7 1026.4 6.8 SSE 14.2 S 0.0 332.5
10:55 19.2 58.6 1026.4 7.5 S 14.2 SSW 0.0 308.6
11:00 18.9 59.3 1026.4 9.1 SSW 16.9 SW 0.0 306.5
11:05 18.6 60.0 1026.4 8.9 SSW 14.2 SW 0.0 277.6
11:10 18.7 61.2 1026.4 6.8 S 11.5 SSW 0.0 259.6
11:15 18.7 60.4 1026.3 5.8 SE 11.5 SE 0.0 306.5
11:20 19.0 60.7 1026.3 5.9 S 11.5 SSE 0.0 377.8
11:25 19.0 60.2 1026.3 7.3 SSW 11.5 SSW 0.0 384.2
11:30 19.0 60.3 1026.3 5.3 SSE 11.5 SSE 0.0 336.3
11:35 19.0 60.0 1026.4 5.3 SSE 8.8 SSE 0.0 286.9
11:40 18.9 60.8 1026.4 6.5 S 11.5 S 0.0 278.9
11:45 18.9 61.1 1026.4 5.4 S 11.5 S 0.0 262.3
11:50 18.8 61.8 1026.4 5.1 SSE 11.5 S 0.0 255.6
11:55 18.6 61.7 1026.4 6.2 SSE 11.5 ESE 0.0 285.3
12:00 18.5 63.0 1026.4 5.0 S 8.8 S 0.0 282.4
12:05 18.7 62.4 1026.4 5.3 S 8.8 SSE 0.0 276.7
12:10 18.7 62.4 1026.4 4.2 SSW 8.8 S 0.0 301.5
12:15 18.8 63.1 1026.4 1.2 NNW 6.1 NNW 0.0 305.5
12:20 18.7 63.7 1026.3 2.1 N 6.1 N 0.0 284.5
12:25 18.9 63.8 1026.3 2.9 NE 6.1 NNE 0.0 272.7
12:30 19.3 61.4 1026.3 3.0 E 8.8 NNE 0.0 280.4
12:35 19.6 60.1 1026.2 1.0 ESE 3.4 SE 0.0 290.8
12:40 19.8 62.7 1026.1 1.5 NNE 6.1 ESE 0.0 289.8
12:45 19.9 61.5 1026.1 0.2 ENE 3.4 N 0.0 294.6
12:50 19.9 61.4 1026.1 4.4 NNE 8.8 NNE 0.0 302.2
12:55 19.5 64.4 1026.0 5.7 N 11.5 NNE 0.0 302.1
13:00 19.6 65.2 1026.0 3.2 N 8.8 N 0.0 306.0
13:05 19.8 66.0 1025.9 4.7 N 11.5 NNE 0.0 316.9
13:10 20.0 63.6 1025.9 1.6 NNE 6.1 NNE 0.0 321.9
13:15 20.2 61.4 1025.9 4.1 ENE 8.8 E 0.0 333.7
13:20 20.2 61.5 1025.9 4.0 NE 8.8 NE 0.0 324.5
13:25 20.1 59.7 1025.9 4.8 ESE 8.8 ESE 0.0 336.1
13:30 20.0 60.0 1025.9 5.4 ESE 11.5 E 0.0 342.4
13:35 20.1 59.3 1025.9 3.5 ESE 8.8 E 0.0 337.0
13:40 20.1 60.1 1025.8 1.1 ESE 8.8 ESE 0.0 386.0
13:45 20.1 59.0 1025.8 4.1 SE 8.8 SE 0.0 491.6
13:50 20.3 58.9 1025.7 5.4 SE 11.5 S 0.0 1020.0
13:55 20.8 58.3 1025.7 4.6 SE 8.8 S 0.0 745.7
14:00 20.9 58.1 1025.7 4.2 ENE 11.5 NE 0.0 398.4
14:05 20.6 58.0 1025.7 2.0 E 6.1 ENE 0.0 311.3
14:10 20.6 60.0 1025.7 2.3 E 8.8 E 0.0 275.6
14:15 20.5 59.2 1025.6 4.1 E 11.5 E 0.0 264.3
14:20 20.5 58.7 1025.6 7.3 E 14.2 ESE 0.0 294.0
14:25 20.3 58.8 1025.6 5.4 E 11.5 ENE 0.0 321.1
14:30 20.2 59.4 1025.6 4.8 ENE 8.8 E 0.0 414.9
14:35 20.5 61.2 1025.6 4.1 NE 11.5 ENE 0.0 470.7
14:40 20.7 58.6 1025.5 8.8 E 16.9 E 0.0 452.3
14:45 20.5 59.2 1025.5 5.8 E 14.2 E 0.0 348.3
14:50 20.4 59.4 1025.5 4.6 ENE 8.8 E 0.0 438.7
14:55 20.5 59.2 1025.4 7.1 E 11.5 ENE 0.0 673.0
15:00 20.5 59.2 1025.4 8.9 E 16.9 E 0.0 556.7
15:05 20.5 57.5 1025.5 5.9 ESE 11.5 ENE 0.0 496.8
15:10 20.7 57.7 1025.5 5.5 E 11.5 ENE 0.0 750.6
15:15 21.0 56.4 1025.5 5.4 E 11.5 ESE 0.0 417.1
15:20 21.0 56.2 1025.5 4.9 E 11.5 NE 0.0 584.1
15:25 21.2 55.0 1025.5 6.1 E 14.2 ENE 0.0 679.7
15:30 21.4 53.2 1025.5 7.3 E 14.2 E 0.0 640.5
15:35 21.3 53.6 1025.4 7.0 E 14.2 E 0.0 568.8
15:40 21.2 54.7 1025.4 9.0 ESE 16.9 E 0.0 555.2
15:45 21.1 56.6 1025.4 8.3 E 16.9 E 0.0 534.7
15:50 20.9 57.4 1025.4 6.7 E 14.2 E 0.0 532.0
15:55 21.2 56.9 1025.4 7.1 E 14.2 ESE 0.0 533.4
16:00 20.9 58.2 1025.4 5.6 E 11.5 E 0.0 384.8
16:05 20.8 59.6 1025.3 6.2 ESE 11.5 SE 0.0 453.0
16:10 20.4 60.9 1025.3 6.8 ESE 11.5 E 0.0 464.0
16:15 20.4 59.9 1025.4 8.3 ESE 16.9 E 0.0 450.7
16:20 20.3 59.2 1025.4 7.4 E 14.2 E 0.0 438.4
16:25 20.4 59.0 1025.3 7.7 E 16.9 E 0.0 428.4
16:30 20.5 58.4 1025.3 7.8 ESE 14.2 ESE 0.0 416.1
16:35 20.4 58.7 1025.3 7.1 E 14.2 E 0.0 390.5
16:40 20.2 59.2 1025.2 6.8 E 14.2 SE 0.0 368.0
16:45 20.2 59.6 1025.2 5.8 E 11.5 E 0.0 364.3
16:50 20.5 58.7 1025.2 6.4 E 14.2 E 0.0 363.8
16:55 20.5 59.6 1025.2 4.6 E 11.5 ESE 0.0 302.5
17:00 20.4 60.2 1025.2 4.7 NNE 8.8 NNE 0.0 311.0
17:05 20.0 60.0 1025.1 8.2 E 16.9 ENE 0.0 295.9
17:10 19.7 61.2 1025.1 7.2 E 16.9 ESE 0.0 273.6
17:15 19.5 62.2 1025.1 6.2 E 14.2 ESE 0.0 258.8
17:20 19.4 63.0 1025.1 6.1 E 14.2 E 0.0 244.8
17:25 19.4 64.2 1025.2 3.5 ENE 11.5 ESE 0.0 231.8
17:30 19.2 61.3 1025.2 7.7 E 14.2 ESE 0.0 217.2
17:35 19.0 64.5 1025.2 5.4 E 14.2 ENE 0.0 203.6
17:40 18.9 63.7 1025.2 4.9 E 8.8 NE 0.0 184.7
17:45 18.8 62.6 1025.2 3.4 E 8.8 ESE 0.0 100.3
17:50 18.6 62.8 1025.2 2.8 NE 8.8 ENE 0.0 154.4
17:55 18.3 64.5 1025.2 3.0 NNE 8.8 E 0.0 149.7
18:00 17.9 64.8 1025.2 1.6 ENE 6.1 NNE 0.0 97.3
18:05 18.1 64.2 1025.2 1.3 NE 6.1 NNE 0.0 60.7
18:10 18.0 65.9 1025.2 0.9 N 6.1 N 0.0 63.3
18:15 17.5 67.7 1025.3 1.4 N 3.4 N 0.0 65.2
18:20 17.1 69.8 1025.3 0.3 N 3.4 N 0.0 30.8
18:25 16.9 70.7 1025.3 1.4 N 3.4 NE 0.0 25.3
18:30 16.6 72.9 1025.3 0.9 N 3.4 N 0.0 23.1
18:35 16.3 74.9 1025.4 2.3 N 6.1 NNE 0.0 21.1
Màxima 21.5 75.3 1026.4 9.1 SSW 16.9 ESE 0.0 1089.0
Mínima 14.6 53.2 1025.1
Total 0.0